createdAt,value
2017-09-15T00:00:32.347Z,22.55
2017-09-15T00:02:34.802Z,22.54
2017-09-15T00:04:37.388Z,22.54
2017-09-15T00:06:40.016Z,22.55
2017-09-15T00:08:42.486Z,22.55
2017-09-15T00:10:44.942Z,22.55
2017-09-15T00:12:47.380Z,22.54
2017-09-15T00:14:49.868Z,22.56
2017-09-15T00:16:52.365Z,22.54
2017-09-15T00:18:54.884Z,22.53
2017-09-15T00:20:57.666Z,22.54
2017-09-15T00:23:00.115Z,22.53
2017-09-15T00:25:02.636Z,22.54
2017-09-15T00:27:05.217Z,22.56
2017-09-15T00:29:07.693Z,22.52
2017-09-15T00:31:10.145Z,22.52
2017-09-15T00:33:12.689Z,22.51
2017-09-15T00:35:15.165Z,22.53
2017-09-15T00:37:18.550Z,22.52
2017-09-15T00:39:21.014Z,22.51
2017-09-15T00:41:23.474Z,22.52
2017-09-15T00:43:25.958Z,22.51
2017-09-15T00:45:28.634Z,22.51
2017-09-15T00:47:31.208Z,22.52
2017-09-15T00:49:33.672Z,22.50
2017-09-15T00:51:36.232Z,22.52
2017-09-15T00:53:38.676Z,22.52
2017-09-15T00:55:41.295Z,22.52
2017-09-15T00:57:43.777Z,22.52
2017-09-15T00:59:46.229Z,22.52
2017-09-15T01:01:48.714Z,22.50
2017-09-15T01:03:51.273Z,22.49
2017-09-15T01:05:53.747Z,22.49
2017-09-15T01:07:56.191Z,22.50
2017-09-15T01:09:58.807Z,22.51
2017-09-15T01:12:01.311Z,22.50
2017-09-15T01:14:03.813Z,22.49
2017-09-15T01:16:06.355Z,22.48
2017-09-15T01:18:08.860Z,22.48
2017-09-15T01:20:11.320Z,22.47
2017-09-15T01:22:13.916Z,22.48
2017-09-15T01:24:16.424Z,22.50
2017-09-15T01:26:18.901Z,22.48
2017-09-15T01:28:21.369Z,22.47
2017-09-15T01:30:23.882Z,22.49
2017-09-15T01:32:26.409Z,22.47
2017-09-15T01:34:28.880Z,22.48
2017-09-15T01:36:31.334Z,22.46
2017-09-15T01:38:33.836Z,22.46
2017-09-15T01:40:36.301Z,22.46
2017-09-15T01:42:38.788Z,22.48
2017-09-15T01:44:41.310Z,22.49
2017-09-15T01:46:43.792Z,22.49
2017-09-15T01:48:46.289Z,22.46
2017-09-15T01:50:48.961Z,22.46
2017-09-15T01:52:51.443Z,22.46
2017-09-15T01:54:53.886Z,22.45
2017-09-15T01:56:56.417Z,22.45
2017-09-15T01:58:58.952Z,22.45
2017-09-15T02:01:01.396Z,22.46
2017-09-15T02:03:03.865Z,22.45
2017-09-15T02:05:06.342Z,22.45
2017-09-15T02:07:08.784Z,22.45
2017-09-15T02:09:11.226Z,22.45
2017-09-15T02:11:13.706Z,22.44
2017-09-15T02:13:16.158Z,22.43
2017-09-15T02:15:18.700Z,22.44
2017-09-15T02:17:21.262Z,22.46
2017-09-15T02:19:23.739Z,22.45
2017-09-15T02:21:26.238Z,22.42
2017-09-15T02:23:28.874Z,22.41
2017-09-15T02:25:31.310Z,22.42
2017-09-15T02:27:33.796Z,22.42
2017-09-15T02:29:36.266Z,22.42
2017-09-15T02:31:38.732Z,22.42
2017-09-15T02:33:41.191Z,22.41
2017-09-15T02:35:43.753Z,22.42
2017-09-15T02:37:46.233Z,22.42
2017-09-15T02:39:48.685Z,22.40
2017-09-15T02:41:51.278Z,22.40
2017-09-15T02:43:53.858Z,22.40
2017-09-15T02:45:56.331Z,22.39
2017-09-15T02:47:58.829Z,22.39
2017-09-15T02:50:01.308Z,22.39
2017-09-15T02:52:03.785Z,22.39
2017-09-15T02:54:06.267Z,22.39
2017-09-15T02:56:08.818Z,22.39
2017-09-15T02:58:11.457Z,22.38
2017-09-15T03:00:14.123Z,22.38
2017-09-15T03:02:16.663Z,22.39
2017-09-15T03:04:19.216Z,22.39
2017-09-15T03:06:21.695Z,22.38
2017-09-15T03:08:24.140Z,22.38
2017-09-15T03:10:26.587Z,22.38
2017-09-15T03:12:29.052Z,22.38
2017-09-15T03:14:31.586Z,22.39
2017-09-15T03:16:34.164Z,22.38
2017-09-15T03:18:36.687Z,22.37
2017-09-15T03:20:39.264Z,22.39
2017-09-15T03:22:41.714Z,22.39
2017-09-15T03:24:44.465Z,22.40
2017-09-15T03:26:46.904Z,22.38
2017-09-15T03:28:49.485Z,22.38
2017-09-15T03:30:52.034Z,22.38
2017-09-15T03:32:54.491Z,22.37
2017-09-15T03:34:56.966Z,22.38
2017-09-15T03:36:59.495Z,22.37
2017-09-15T03:39:01.970Z,22.37
2017-09-15T03:41:04.549Z,22.38
2017-09-15T03:43:07.013Z,22.37
2017-09-15T03:45:09.465Z,22.38
2017-09-15T03:47:12.005Z,22.38
2017-09-15T03:49:14.467Z,22.38
2017-09-15T03:51:16.902Z,22.37
2017-09-15T03:53:19.473Z,22.36
2017-09-15T03:55:22.059Z,22.37
2017-09-15T03:57:24.517Z,22.35
2017-09-15T03:59:26.990Z,22.34
2017-09-15T04:01:29.484Z,22.34
2017-09-15T04:03:31.978Z,22.33
2017-09-15T04:05:34.413Z,22.36
2017-09-15T04:07:36.981Z,22.36
2017-09-15T04:09:39.457Z,22.36
2017-09-15T04:11:41.936Z,22.37
2017-09-15T04:13:44.396Z,22.35
2017-09-15T04:15:46.881Z,22.36
2017-09-15T04:17:49.345Z,22.37
2017-09-15T04:19:51.833Z,22.34
2017-09-15T04:21:54.324Z,22.35
2017-09-15T04:23:56.769Z,22.33
2017-09-15T04:25:59.357Z,22.35
2017-09-15T04:28:01.977Z,22.33
2017-09-15T04:30:04.465Z,22.33
2017-09-15T04:32:07.028Z,22.35
2017-09-15T04:34:09.456Z,22.34
2017-09-15T04:36:12.166Z,22.32
2017-09-15T04:38:14.650Z,22.32
2017-09-15T04:40:17.116Z,22.35
2017-09-15T04:42:19.552Z,22.33
2017-09-15T04:44:22.045Z,22.32
2017-09-15T04:46:24.573Z,22.32
2017-09-15T04:48:27.021Z,22.32
2017-09-15T04:50:29.515Z,22.34
2017-09-15T04:52:32.112Z,22.33
2017-09-15T04:54:34.604Z,22.34
2017-09-15T04:56:37.080Z,22.34
2017-09-15T04:58:39.542Z,22.34
2017-09-15T05:00:42.049Z,22.33
2017-09-15T05:02:44.522Z,22.34
2017-09-15T05:04:46.968Z,22.34
2017-09-15T05:06:49.510Z,22.33
2017-09-15T05:08:51.978Z,22.35
2017-09-15T05:10:54.428Z,22.36
2017-09-15T05:12:56.934Z,22.33
2017-09-15T05:14:59.389Z,22.34
2017-09-15T05:17:01.845Z,22.34
2017-09-15T05:19:04.466Z,22.34
2017-09-15T05:21:06.977Z,22.36
2017-09-15T05:23:09.460Z,22.36
2017-09-15T05:25:11.916Z,22.38
2017-09-15T05:27:14.471Z,22.35
2017-09-15T05:29:16.912Z,22.34
2017-09-15T05:31:19.379Z,22.33
2017-09-15T05:33:21.869Z,22.32
2017-09-15T05:35:24.322Z,22.32
2017-09-15T05:37:26.780Z,22.33
2017-09-15T05:39:29.256Z,22.34
2017-09-15T05:41:31.739Z,22.36
2017-09-15T05:43:34.241Z,22.35
2017-09-15T05:45:36.728Z,22.35
2017-09-15T05:47:39.206Z,22.36
2017-09-15T05:49:41.707Z,22.36
2017-09-15T05:51:44.191Z,22.34
2017-09-15T05:53:46.756Z,22.35
2017-09-15T05:55:49.208Z,22.36
2017-09-15T05:57:51.693Z,22.37
2017-09-15T05:59:54.140Z,22.37
2017-09-15T06:01:56.631Z,22.38
2017-09-15T06:03:59.121Z,22.38
2017-09-15T06:06:01.581Z,22.39
2017-09-15T06:08:04.027Z,22.39
2017-09-15T06:10:06.798Z,22.38
2017-09-15T06:12:09.278Z,22.38
2017-09-15T06:14:11.724Z,22.37
2017-09-15T06:16:14.201Z,22.35
2017-09-15T06:18:16.698Z,22.36
2017-09-15T06:20:19.165Z,22.35
2017-09-15T06:22:21.732Z,22.35
2017-09-15T06:24:24.257Z,22.37
2017-09-15T06:26:26.775Z,22.37
2017-09-15T06:28:29.652Z,22.36
2017-09-15T06:30:32.125Z,22.36
2017-09-15T06:32:34.576Z,22.35
2017-09-15T06:34:37.159Z,22.36
2017-09-15T06:36:39.742Z,22.36
2017-09-15T06:38:42.237Z,22.36
2017-09-15T06:40:44.793Z,22.38
2017-09-15T06:42:47.261Z,22.34
2017-09-15T06:44:49.760Z,20.74
2017-09-15T06:46:52.215Z,20.42
2017-09-15T06:48:54.676Z,20.34
2017-09-15T06:50:57.160Z,20.26
2017-09-15T06:52:59.704Z,19.41
2017-09-15T06:55:02.192Z,19.38
2017-09-15T06:57:04.653Z,19.15
2017-09-15T06:59:07.138Z,19.61
2017-09-15T07:01:09.610Z,19.38
2017-09-15T07:03:12.169Z,18.46
2017-09-15T07:05:14.646Z,19.28
2017-09-15T07:07:17.106Z,19.09
2017-09-15T07:09:19.680Z,19.18
2017-09-15T07:11:23.177Z,19.47
2017-09-15T07:13:25.619Z,19.21
2017-09-15T07:15:28.085Z,18.88
2017-09-15T07:17:30.913Z,17.73
2017-09-15T07:19:33.401Z,18.17
2017-09-15T07:21:35.840Z,19.19
2017-09-15T07:23:38.388Z,19.08
2017-09-15T07:25:41.015Z,17.90
2017-09-15T07:27:43.462Z,17.69
2017-09-15T07:29:46.134Z,18.01
2017-09-15T07:31:48.638Z,18.39
2017-09-15T07:33:51.194Z,18.09
2017-09-15T07:35:53.687Z,18.51
2017-09-15T07:37:56.132Z,18.78
2017-09-15T07:39:58.586Z,18.99
2017-09-15T07:42:01.227Z,18.74
2017-09-15T07:44:03.824Z,18.43
2017-09-15T07:46:06.320Z,19.26
2017-09-15T07:48:08.864Z,19.43
2017-09-15T07:50:11.372Z,19.30
2017-09-15T07:52:13.849Z,19.44
2017-09-15T07:54:16.316Z,18.80
2017-09-15T07:56:18.756Z,18.24
2017-09-15T07:58:21.231Z,18.06
2017-09-15T08:00:23.789Z,18.89
2017-09-15T08:02:26.258Z,17.69
2017-09-15T08:04:28.735Z,17.90
2017-09-15T08:06:31.207Z,18.99
2017-09-15T08:08:33.688Z,18.92
2017-09-15T08:10:36.183Z,18.84
2017-09-15T08:12:38.725Z,18.94
2017-09-15T08:14:41.305Z,18.73
2017-09-15T08:16:43.777Z,18.93
2017-09-15T08:18:46.401Z,18.45
2017-09-15T08:20:48.968Z,18.56
2017-09-15T08:22:51.458Z,18.39
2017-09-15T08:24:54.096Z,18.35
2017-09-15T08:26:56.645Z,18.31
2017-09-15T08:28:59.148Z,19.03
2017-09-15T08:31:01.699Z,17.76
2017-09-15T08:33:04.291Z,19.18
2017-09-15T08:35:06.754Z,20.09
2017-09-15T08:37:09.313Z,20.65
2017-09-15T08:39:11.761Z,21.01
2017-09-15T08:41:14.207Z,21.26
2017-09-15T08:43:16.670Z,21.43
2017-09-15T08:45:19.159Z,21.56
2017-09-15T08:47:21.622Z,21.66
2017-09-15T08:49:24.092Z,21.75
2017-09-15T08:51:26.568Z,21.83
2017-09-15T08:53:29.001Z,21.91
2017-09-15T08:55:31.473Z,21.97
2017-09-15T08:57:33.939Z,22.01
2017-09-15T08:59:36.448Z,22.05
2017-09-15T09:01:38.964Z,22.09
2017-09-15T09:03:41.497Z,22.12
2017-09-15T09:05:43.984Z,22.13
2017-09-15T09:07:46.479Z,22.15
2017-09-15T09:09:49.005Z,22.19
2017-09-15T09:11:51.442Z,22.22
2017-09-15T09:13:54.028Z,22.24
2017-09-15T09:15:56.465Z,22.27
2017-09-15T09:17:58.948Z,22.27
2017-09-15T09:20:01.509Z,22.29
2017-09-15T09:22:04.004Z,22.31
2017-09-15T09:24:06.589Z,22.30
2017-09-15T09:26:09.074Z,22.34
2017-09-15T09:28:11.551Z,22.40
2017-09-15T09:30:14.060Z,22.46
2017-09-15T09:32:16.687Z,22.50
2017-09-15T09:34:19.262Z,22.54
2017-09-15T09:36:21.789Z,22.57
2017-09-15T09:38:24.418Z,22.61
2017-09-15T09:40:26.861Z,22.65
2017-09-15T09:42:29.291Z,22.68
2017-09-15T09:44:31.996Z,22.69
2017-09-15T09:46:34.423Z,22.69
2017-09-15T09:48:36.912Z,22.68
2017-09-15T09:50:39.406Z,22.68
2017-09-15T09:52:41.872Z,22.74
2017-09-15T09:54:44.325Z,22.72
2017-09-15T09:56:47.017Z,22.70
2017-09-15T09:58:49.689Z,22.71
2017-09-15T10:00:52.184Z,22.72
2017-09-15T10:02:54.750Z,22.70
2017-09-15T10:04:57.273Z,22.71
2017-09-15T10:06:59.733Z,22.70
2017-09-15T10:09:02.216Z,22.70
2017-09-15T10:11:04.656Z,22.76
2017-09-15T10:13:07.102Z,22.78
2017-09-15T10:15:09.718Z,22.81
2017-09-15T10:17:12.196Z,22.80
2017-09-15T10:19:14.641Z,22.79
2017-09-15T10:21:17.200Z,22.82
2017-09-15T10:23:19.736Z,22.79
2017-09-15T10:25:22.347Z,22.80
2017-09-15T10:27:24.814Z,22.82
2017-09-15T10:29:27.316Z,22.82
2017-09-15T10:31:29.753Z,22.86
2017-09-15T10:33:32.435Z,22.88
2017-09-15T10:35:34.903Z,22.89
2017-09-15T10:37:37.378Z,22.92
2017-09-15T10:39:39.872Z,22.97
2017-09-15T10:41:42.400Z,22.97
2017-09-15T10:43:44.889Z,22.98
2017-09-15T10:45:47.389Z,22.96
2017-09-15T10:47:49.821Z,22.98
2017-09-15T10:49:52.259Z,23.04
2017-09-15T10:51:54.721Z,23.09
2017-09-15T10:53:57.248Z,23.15
2017-09-15T10:55:59.808Z,23.16
2017-09-15T10:58:08.153Z,23.12
2017-09-15T11:00:13.481Z,23.05
2017-09-15T11:02:16.190Z,23.00
2017-09-15T11:04:18.738Z,22.97
2017-09-15T11:06:21.195Z,22.95
2017-09-15T11:08:23.689Z,22.93
2017-09-15T11:10:26.225Z,22.92
2017-09-15T11:12:28.671Z,22.92
2017-09-15T11:14:31.108Z,22.92
2017-09-15T11:16:33.583Z,22.92
2017-09-15T11:18:36.020Z,22.92
2017-09-15T11:20:38.578Z,22.96
2017-09-15T11:22:41.064Z,22.96
2017-09-15T11:24:43.588Z,22.94
2017-09-15T11:26:46.020Z,22.94
2017-09-15T11:28:48.556Z,22.95
2017-09-15T11:30:51.077Z,22.95
2017-09-15T11:32:53.629Z,22.96
2017-09-15T11:34:56.474Z,22.98
2017-09-15T11:36:58.984Z,23.04
2017-09-15T11:39:01.523Z,23.04
2017-09-15T11:41:04.022Z,23.08
2017-09-15T11:43:06.543Z,23.14
2017-09-15T11:45:09.192Z,23.18
2017-09-15T11:47:11.706Z,23.20
2017-09-15T11:49:14.281Z,23.23
2017-09-15T11:51:16.768Z,23.24
2017-09-15T11:53:19.262Z,23.26
2017-09-15T11:55:21.767Z,23.28
2017-09-15T11:57:24.309Z,23.29
2017-09-15T11:59:27.752Z,23.29
2017-09-15T12:01:30.307Z,23.30
2017-09-15T12:03:32.895Z,23.28
2017-09-15T12:05:35.468Z,23.31
2017-09-15T12:07:37.937Z,23.36
2017-09-15T12:09:40.407Z,23.36
2017-09-15T12:11:43.085Z,23.32
2017-09-15T12:13:45.543Z,22.46
2017-09-15T12:15:48.072Z,21.93
2017-09-15T12:17:50.532Z,21.09
2017-09-15T12:19:52.973Z,21.35
2017-09-15T12:21:55.489Z,21.18
2017-09-15T12:23:58.082Z,20.62
2017-09-15T12:26:00.578Z,20.69
2017-09-15T12:28:03.154Z,20.93
2017-09-15T12:30:05.640Z,20.94
2017-09-15T12:32:08.173Z,20.83
2017-09-15T12:34:10.604Z,20.70
2017-09-15T12:36:13.195Z,20.73
2017-09-15T12:38:15.661Z,20.93
2017-09-15T12:40:18.165Z,21.78
2017-09-15T12:42:20.632Z,22.17
2017-09-15T12:44:23.132Z,22.35
2017-09-15T12:46:25.570Z,22.53
2017-09-15T12:48:28.081Z,22.66
2017-09-15T12:50:30.518Z,22.76
2017-09-15T12:52:32.964Z,22.84
2017-09-15T12:54:35.452Z,22.86
2017-09-15T12:56:37.914Z,22.90
2017-09-15T12:58:40.380Z,22.92
2017-09-15T13:00:42.989Z,22.98
2017-09-15T13:02:45.555Z,23.07
2017-09-15T13:04:47.988Z,23.10
2017-09-15T13:06:50.497Z,23.14
2017-09-15T13:08:52.957Z,23.14
2017-09-15T13:10:55.396Z,23.15
2017-09-15T13:12:57.942Z,23.16
2017-09-15T13:15:00.478Z,23.16
2017-09-15T13:17:02.949Z,23.17
2017-09-15T13:19:05.448Z,23.16
2017-09-15T13:21:07.884Z,23.18
2017-09-15T13:23:10.334Z,23.20
2017-09-15T13:25:12.838Z,23.19
2017-09-15T13:27:15.364Z,23.19
2017-09-15T13:29:17.975Z,23.19
2017-09-15T13:31:20.442Z,23.21
2017-09-15T13:33:22.884Z,23.23
2017-09-15T13:35:25.356Z,23.23
2017-09-15T13:37:27.957Z,23.20
2017-09-15T13:39:30.448Z,23.19
2017-09-15T13:41:32.894Z,23.18
2017-09-15T13:43:35.365Z,23.16
2017-09-15T13:45:37.940Z,23.16
2017-09-15T13:47:40.468Z,23.16
2017-09-15T13:49:43.032Z,23.16
2017-09-15T13:51:45.485Z,23.16
2017-09-15T13:53:47.967Z,23.16
2017-09-15T13:55:50.426Z,23.16
2017-09-15T13:57:52.868Z,23.15
2017-09-15T13:59:55.379Z,23.15
2017-09-15T14:01:57.961Z,23.14
2017-09-15T14:04:00.430Z,23.11
2017-09-15T14:06:02.862Z,23.10
2017-09-15T14:08:05.332Z,23.11
2017-09-15T14:10:07.793Z,23.14
2017-09-15T14:12:10.282Z,23.16
2017-09-15T14:14:12.776Z,23.15
2017-09-15T14:16:15.369Z,23.13
2017-09-15T14:18:17.840Z,23.09
2017-09-15T14:20:20.412Z,23.09
2017-09-15T14:22:22.988Z,23.08
2017-09-15T14:24:25.455Z,23.07
2017-09-15T14:26:28.064Z,23.06
2017-09-15T14:28:30.561Z,23.04
2017-09-15T14:30:33.024Z,23.04
2017-09-15T14:32:35.592Z,23.04
2017-09-15T14:34:38.148Z,23.03
2017-09-15T14:36:40.706Z,23.03
2017-09-15T14:38:43.216Z,23.00
2017-09-15T14:40:45.657Z,22.97
2017-09-15T14:42:48.095Z,22.96
2017-09-15T14:44:50.588Z,22.94
2017-09-15T14:46:53.050Z,22.95
2017-09-15T14:48:55.485Z,22.96
2017-09-15T14:50:58.028Z,22.99
2017-09-15T14:53:00.479Z,23.01
2017-09-15T14:55:02.928Z,23.05
2017-09-15T14:57:05.433Z,23.06
2017-09-15T14:59:07.993Z,23.09
2017-09-15T15:01:10.569Z,23.11
2017-09-15T15:03:13.045Z,23.10
2017-09-15T15:05:15.518Z,23.12
2017-09-15T15:07:17.976Z,23.16
2017-09-15T15:09:20.445Z,23.17
2017-09-15T15:11:22.954Z,23.18
2017-09-15T15:13:25.400Z,23.19
2017-09-15T15:15:27.890Z,23.18
2017-09-15T15:17:30.417Z,23.20
2017-09-15T15:19:32.899Z,23.20
2017-09-15T15:21:35.389Z,23.21
2017-09-15T15:23:37.936Z,23.22
2017-09-15T15:25:40.385Z,23.22
2017-09-15T15:27:42.836Z,23.25
2017-09-15T15:29:45.285Z,23.26
2017-09-15T15:31:47.824Z,23.24
2017-09-15T15:33:50.482Z,23.26
2017-09-15T15:35:52.923Z,23.27
2017-09-15T15:37:55.373Z,23.27
2017-09-15T15:39:57.940Z,23.27
2017-09-15T15:42:00.433Z,23.29
2017-09-15T15:44:03.069Z,23.31
2017-09-15T15:46:05.579Z,23.31
2017-09-15T15:48:08.043Z,23.32
2017-09-15T15:50:10.523Z,23.33
2017-09-15T15:52:14.004Z,23.34
2017-09-15T15:54:16.480Z,23.34
2017-09-15T15:56:19.003Z,23.34
2017-09-15T15:58:21.561Z,23.34
2017-09-15T16:00:24.152Z,23.30
2017-09-15T16:02:26.597Z,23.32
2017-09-15T16:04:29.196Z,23.32
2017-09-15T16:06:31.675Z,23.33
2017-09-15T16:08:34.244Z,23.34
2017-09-15T16:10:36.794Z,23.34
2017-09-15T16:12:39.226Z,23.34
2017-09-15T16:14:41.752Z,23.34
2017-09-15T16:16:44.253Z,23.34
2017-09-15T16:18:46.708Z,23.36
2017-09-15T16:20:49.181Z,23.37
2017-09-15T16:22:51.789Z,23.36
2017-09-15T16:24:54.265Z,23.37
2017-09-15T16:26:56.732Z,23.36
2017-09-15T16:28:59.303Z,23.36
2017-09-15T16:31:01.766Z,23.35
2017-09-15T16:33:04.237Z,23.35
2017-09-15T16:35:07.716Z,23.35
2017-09-15T16:37:10.221Z,23.34
2017-09-15T16:39:18.348Z,23.35
2017-09-15T16:41:26.604Z,23.33
2017-09-15T16:43:34.770Z,23.24
2017-09-15T16:45:42.792Z,23.19
2017-09-15T16:47:50.905Z,23.08
2017-09-15T16:49:52.925Z,23.02
2017-09-15T16:51:55.368Z,22.94
2017-09-15T16:53:57.863Z,22.91
2017-09-15T16:56:00.312Z,22.84
2017-09-15T16:58:02.823Z,22.81
2017-09-15T17:00:05.288Z,22.82
2017-09-15T17:02:08.551Z,22.74
2017-09-15T17:04:11.142Z,22.69
2017-09-15T17:06:13.637Z,22.69
2017-09-15T17:08:16.150Z,22.67
2017-09-15T17:10:18.590Z,22.63
2017-09-15T17:12:21.224Z,22.65
2017-09-15T17:14:23.763Z,22.65
2017-09-15T17:16:26.369Z,22.62
2017-09-15T17:18:28.921Z,22.61
2017-09-15T17:20:31.408Z,22.55
2017-09-15T17:22:33.877Z,22.55
2017-09-15T17:24:36.449Z,22.55
2017-09-15T17:26:38.896Z,22.53
2017-09-15T17:28:41.336Z,22.54
2017-09-15T17:30:43.793Z,22.52
2017-09-15T17:32:46.232Z,22.39
2017-09-15T17:34:48.782Z,22.41
2017-09-15T17:36:51.437Z,22.43
2017-09-15T17:38:53.906Z,22.42
2017-09-15T17:40:56.410Z,22.40
2017-09-15T17:42:59.124Z,22.41
2017-09-15T17:45:01.771Z,22.34
2017-09-15T17:47:04.241Z,22.33
2017-09-15T17:49:06.812Z,22.29
2017-09-15T17:51:09.340Z,22.22
2017-09-15T17:53:11.787Z,22.20
2017-09-15T17:55:14.248Z,22.20
2017-09-15T17:57:16.692Z,22.24
2017-09-15T17:59:19.265Z,22.27
2017-09-15T18:01:21.742Z,22.25
2017-09-15T18:03:24.225Z,22.24
2017-09-15T18:05:26.696Z,22.22
2017-09-15T18:07:29.437Z,22.22
2017-09-15T18:09:31.932Z,22.21
2017-09-15T18:11:34.506Z,22.20
2017-09-15T18:13:36.990Z,22.19
2017-09-15T18:15:39.445Z,22.19
2017-09-15T18:17:41.966Z,22.16
2017-09-15T18:19:44.516Z,22.16
2017-09-15T18:21:47.015Z,22.11
2017-09-15T18:23:49.758Z,22.09
2017-09-15T18:25:52.329Z,22.09
2017-09-15T18:27:54.920Z,22.08
2017-09-15T18:29:57.437Z,22.05
2017-09-15T18:32:00.015Z,22.03
2017-09-15T18:34:02.495Z,21.96
2017-09-15T18:36:04.982Z,21.99
2017-09-15T18:38:07.500Z,21.97
2017-09-15T18:40:10.056Z,21.96
2017-09-15T18:42:13.726Z,21.95
2017-09-15T18:44:16.377Z,21.98
2017-09-15T18:46:19.060Z,21.99
2017-09-15T18:48:22.945Z,21.96
2017-09-15T18:50:27.260Z,21.95
2017-09-15T18:52:29.851Z,21.89
2017-09-15T18:54:32.512Z,21.82
2017-09-15T18:56:35.390Z,21.84
2017-09-15T18:58:37.950Z,21.87
2017-09-15T19:00:40.398Z,21.86
2017-09-15T19:02:42.918Z,21.86
2017-09-15T19:04:45.481Z,21.86
2017-09-15T19:06:47.920Z,21.87
2017-09-15T19:08:50.524Z,21.91
2017-09-15T19:10:53.094Z,21.88
2017-09-15T19:12:55.665Z,21.85
2017-09-15T19:14:58.191Z,21.83
2017-09-15T19:17:00.672Z,21.80
2017-09-15T19:19:03.188Z,21.80
2017-09-15T19:21:05.730Z,21.68
2017-09-15T19:23:08.418Z,21.71
2017-09-15T19:25:10.997Z,21.77
2017-09-15T19:27:13.495Z,21.75
2017-09-15T19:29:16.005Z,21.75
2017-09-15T19:31:18.476Z,21.76
2017-09-15T19:33:20.968Z,21.61
2017-09-15T19:35:23.446Z,21.66
2017-09-15T19:37:26.023Z,21.67
2017-09-15T19:39:28.597Z,21.68
2017-09-15T19:41:31.133Z,21.62
2017-09-15T19:43:33.694Z,21.60
2017-09-15T19:45:36.340Z,21.60
2017-09-15T19:47:38.885Z,21.65
2017-09-15T19:49:41.324Z,21.64
2017-09-15T19:51:43.932Z,21.60
2017-09-15T19:53:46.500Z,21.54
2017-09-15T19:55:49.075Z,21.53
2017-09-15T19:57:51.679Z,21.56
2017-09-15T19:59:54.161Z,21.48
2017-09-15T20:01:56.690Z,21.45
2017-09-15T20:03:59.147Z,21.52
2017-09-15T20:06:01.616Z,21.53
2017-09-15T20:08:04.194Z,21.54
2017-09-15T20:10:06.765Z,21.51
2017-09-15T20:12:09.304Z,21.48
2017-09-15T20:14:11.750Z,21.38
2017-09-15T20:16:14.252Z,21.41
2017-09-15T20:18:16.864Z,21.43
2017-09-15T20:20:19.443Z,21.42
2017-09-15T20:22:22.105Z,21.48
2017-09-15T20:24:24.549Z,21.44
2017-09-15T20:26:26.989Z,21.46
2017-09-15T20:28:29.498Z,21.48
2017-09-15T20:30:31.952Z,21.45
2017-09-15T20:32:34.561Z,21.41
2017-09-15T20:34:37.236Z,21.40
2017-09-15T20:36:39.807Z,21.47
2017-09-15T20:38:42.483Z,21.44
2017-09-15T20:40:45.137Z,21.41
2017-09-15T20:42:47.601Z,21.37
2017-09-15T20:44:50.043Z,21.39
2017-09-15T20:46:52.922Z,21.39
2017-09-15T20:48:55.406Z,21.29
2017-09-15T20:50:57.854Z,21.23
2017-09-15T20:53:00.329Z,21.26
2017-09-15T20:55:02.805Z,21.32
2017-09-15T20:57:05.246Z,21.35
2017-09-15T20:59:07.776Z,21.29
2017-09-15T21:01:10.250Z,21.37
2017-09-15T21:03:12.841Z,21.33
2017-09-15T21:05:15.357Z,21.32
2017-09-15T21:07:17.829Z,21.38
2017-09-15T21:09:20.353Z,21.39
2017-09-15T21:11:22.976Z,21.36
2017-09-15T21:13:25.447Z,21.34
2017-09-15T21:15:27.897Z,21.30
2017-09-15T21:17:30.414Z,21.34
2017-09-15T21:19:33.010Z,21.32
2017-09-15T21:21:35.559Z,21.33
2017-09-15T21:23:38.160Z,21.31
2017-09-15T21:25:40.668Z,21.27
2017-09-15T21:29:50.872Z,21.30
2017-09-15T21:31:53.393Z,21.32
2017-09-15T21:33:55.933Z,21.32
2017-09-15T21:35:58.525Z,21.32
2017-09-15T21:38:01.059Z,21.37
2017-09-15T21:40:03.539Z,21.38
2017-09-15T21:42:06.076Z,21.37
2017-09-15T21:44:08.524Z,21.39
2017-09-15T21:46:10.964Z,21.35
2017-09-15T21:48:13.638Z,21.35
2017-09-15T21:50:16.091Z,21.36
2017-09-15T21:52:18.552Z,21.32
2017-09-15T21:54:21.015Z,21.33
2017-09-15T21:56:23.459Z,21.34
2017-09-15T21:58:25.988Z,21.34
2017-09-15T22:00:28.559Z,21.26
2017-09-15T22:02:31.058Z,21.21
2017-09-15T22:04:39.079Z,21.20
2017-09-15T22:06:41.648Z,21.22
2017-09-15T22:08:44.107Z,21.26
2017-09-15T22:10:46.565Z,21.24
2017-09-15T22:12:49.093Z,21.25
2017-09-15T22:14:51.533Z,21.26
2017-09-15T22:16:54.027Z,21.23
2017-09-15T22:18:56.571Z,21.23
2017-09-15T22:20:59.011Z,21.27
2017-09-15T22:23:01.572Z,21.17
2017-09-15T22:25:04.093Z,21.14
2017-09-15T22:27:06.636Z,21.14
2017-09-15T22:29:09.120Z,21.07
2017-09-15T22:31:11.656Z,21.10
2017-09-15T22:33:14.225Z,21.11
2017-09-15T22:35:17.533Z,21.15
2017-09-15T22:37:20.184Z,21.14
2017-09-15T22:39:22.671Z,21.20
2017-09-15T22:41:25.232Z,21.21
2017-09-15T22:43:27.711Z,21.12
2017-09-15T22:45:30.166Z,21.09
2017-09-15T22:47:32.668Z,21.14
2017-09-15T22:49:35.373Z,21.14
2017-09-15T22:51:37.915Z,21.05
2017-09-15T22:53:40.468Z,21.03
2017-09-15T22:55:42.971Z,21.01
2017-09-15T22:57:45.505Z,21.00
2017-09-15T22:59:48.026Z,21.04
2017-09-15T23:01:50.587Z,20.95
2017-09-15T23:03:53.021Z,20.95
2017-09-15T23:05:55.694Z,20.95
2017-09-15T23:07:58.422Z,20.96
2017-09-15T23:10:00.890Z,20.95
2017-09-15T23:12:03.512Z,20.91
2017-09-15T23:14:06.058Z,20.94
2017-09-15T23:16:09.026Z,20.91
2017-09-15T23:18:11.982Z,20.94
2017-09-15T23:20:14.520Z,20.99
2017-09-15T23:22:16.965Z,21.04
2017-09-15T23:24:19.500Z,21.03
2017-09-15T23:26:22.021Z,21.07
2017-09-15T23:28:24.467Z,21.05
2017-09-15T23:30:26.922Z,20.96
2017-09-15T23:32:29.483Z,20.97
2017-09-15T23:34:31.930Z,21.02
2017-09-15T23:36:34.373Z,21.06
2017-09-15T23:38:36.955Z,21.08
2017-09-15T23:40:39.409Z,21.04
2017-09-15T23:42:41.917Z,21.02
2017-09-15T23:44:44.675Z,21.01
2017-09-15T23:46:47.147Z,20.99
2017-09-15T23:48:49.621Z,21.00
2017-09-15T23:50:52.242Z,21.00
2017-09-15T23:52:54.702Z,20.92
2017-09-15T23:54:57.138Z,20.88
2017-09-15T23:56:59.653Z,20.96
2017-09-15T23:59:02.116Z,20.95
